Time;durP1;ratioP1;P1;durP2;ratioP2;P2;SDS_P1;SDS_P2;PMS_P1;PMS_P2;Temp;Humidity;BMP_temperature;BMP_pressure;BME280_temperature;BME280_humidity;BME280_pressure;Samples;Min_cycle;Max_cycle;Signal;HPM_P1;HPM_P2
2022/08/11 00:00:42;;;;;;;3.97;2.08;;;17.50;99.90;;;;;;4987440;28;20586;-59
2022/08/11 00:03:11;;;;;;;2.20;1.83;;;17.50;99.90;;;;;;5006637;28;20461;-59
2022/08/11 00:05:44;;;;;;;;;;;17.50;99.90;;;;;;5026577;28;20056;-57
2022/08/11 00:08:20;;;;;;;3.45;2.40;;;17.50;99.90;;;;;;5026507;28;19925;-62
2022/08/11 00:10:54;;;;;;;3.72;2.20;;;17.50;99.90;;;;;;5025886;28;20057;-66
2022/08/11 00:13:22;;;;;;;6.85;2.70;;;17.50;99.90;;;;;;5008629;28;20076;-56
2022/08/11 00:15:49;;;;;;;4.55;2.55;;;17.50;99.90;;;;;;5008619;28;20045;-56
2022/08/11 00:18:17;;;;;;;6.63;2.97;;;17.50;99.90;;;;;;5026219;28;20054;-68
2022/08/11 00:20:44;;;;;;;3.30;2.35;;;17.50;99.90;;;;;;5025983;28;20100;-59
2022/08/11 00:23:18;;;;;;;3.80;2.60;;;17.50;99.90;;;;;;5008248;28;20041;-61
2022/08/11 00:25:47;;;;;;;4.85;2.28;;;17.50;99.90;;;;;;5026885;28;20500;-58
2022/08/11 00:28:35;;;;;;;5.72;2.95;;;17.50;99.90;;;;;;5025436;28;20084;-60
2022/08/11 00:31:10;;;;;;;3.20;2.25;;;17.50;99.90;;;;;;5026585;28;20072;-60
2022/08/11 00:33:41;;;;;;;7.30;2.40;;;17.50;99.90;;;;;;5025264;28;20406;-56
2022/08/11 00:36:10;;;;;;;5.13;3.05;;;17.40;99.90;;;;;;5026189;28;20103;-63
2022/08/11 00:38:40;;;;;;;5.07;3.03;;;17.40;99.90;;;;;;5025660;28;20051;-58
2022/08/11 00:41:15;;;;;;;3.47;2.75;;;17.40;99.90;;;;;;5024796;28;20095;-63
2022/08/11 00:44:06;;;;;;;6.75;2.60;;;17.40;99.90;;;;;;5008403;28;20048;-62
2022/08/11 00:46:59;;;;;;;6.28;2.70;;;17.40;99.90;;;;;;5007966;28;20484;-58
2022/08/11 00:49:39;;;;;;;4.00;2.60;;;17.40;99.90;;;;;;5014884;28;20057;-57
2022/08/11 00:52:43;;;;;;;5.50;2.58;;;17.40;99.90;;;;;;5026568;28;20049;-62
2022/08/11 00:55:46;;;;;;;4.60;2.97;;;17.40;99.90;;;;;;5022597;28;20041;-57
2022/08/11 00:58:15;;;;;;;3.63;2.60;;;17.40;99.90;;;;;;5017088;28;20079;-61
2022/08/11 01:01:12;;;;;;;3.38;2.75;;;17.40;99.90;;;;;;5014533;28;20042;-67
2022/08/11 01:04:06;;;;;;;4.80;2.67;;;17.40;99.90;;;;;;5024451;28;20548;-63
2022/08/11 01:07:06;;;;;;;2.95;2.63;;;17.30;99.90;;;;;;5025270;28;20423;-57
2022/08/11 01:09:59;;;;;;;9.50;3.50;;;17.30;99.90;;;;;;5026135;28;20121;-59
2022/08/11 01:12:29;;;;;;;4.10;3.03;;;17.30;99.90;;;;;;5021344;28;20038;-55
2022/08/11 01:14:55;;;;;;;;;;;17.30;99.90;;;;;;5015768;28;20669;-58
2022/08/11 01:17:43;;;;;;;6.78;3.28;;;17.30;99.90;;;;;;5029294;28;20007;-68
2022/08/11 01:20:43;;;;;;;6.60;3.30;;;17.30;99.90;;;;;;5029011;28;20412;-57
2022/08/11 01:23:28;;;;;;;5.05;3.20;;;17.30;99.90;;;;;;5016087;28;20042;-57
2022/08/11 01:26:10;;;;;;;8.80;2.90;;;17.30;99.90;;;;;;5028832;28;20060;-66
2022/08/11 01:29:04;;;;;;;8.77;3.05;;;17.20;99.90;;;;;;5026476;28;20060;-57
2022/08/11 01:32:14;;;;;;;6.18;3.22;;;17.20;99.90;;;;;;5029189;28;20111;-63
2022/08/11 01:35:23;;;;;;;8.40;2.88;;;17.20;99.90;;;;;;5026358;28;20450;-58
2022/08/11 01:38:12;;;;;;;7.13;3.13;;;17.20;99.90;;;;;;5028264;28;20531;-61
2022/08/11 01:44:36;;;;;;;5.68;3.28;;;17.10;99.90;;;;;;5029420;28;20069;-63
2022/08/11 01:44:51;;;;;;;5.78;2.85;;;17.10;99.90;;;;;;4978817;28;20057;-62
2022/08/11 01:50:15;;;;;;;7.22;3.30;;;17.10;99.90;;;;;;5028423;28;20037;-58
2022/08/11 01:52:54;;;;;;;6.85;3.20;;;17.00;99.90;;;;;;5027292;28;20076;-58
2022/08/11 01:55:47;;;;;;;3.43;2.47;;;16.90;99.90;;;;;;5028369;28;20045;-57
2022/08/11 01:58:35;;;;;;;7.68;3.10;;;16.90;99.90;;;;;;5026234;28;20112;-64
2022/08/11 02:01:15;;;;;;;4.30;3.00;;;16.90;99.90;;;;;;5029398;28;20136;-60
2022/08/11 02:03:58;;;;;;;4.15;3.03;;;16.80;99.90;;;;;;5019188;28;20132;-63
2022/08/11 02:06:54;;;;;;;4.40;3.20;;;16.80;99.90;;;;;;5009439;28;20108;-58
2022/08/11 02:09:42;;;;;;;3.33;3.00;;;16.80;99.90;;;;;;4991694;28;20042;-60
2022/08/11 02:12:43;;;;;;;4.40;2.47;;;16.70;99.90;;;;;;5008203;28;20432;-63
2022/08/11 02:15:23;;;;;;;6.40;3.10;;;16.70;99.90;;;;;;5004622;28;20053;-64
2022/08/11 02:23:38;;;;;;;4.10;2.80;;;16.70;99.90;;;;;;5008541;28;20057;-58
2022/08/11 02:24:13;;;;;;;4.00;3.30;;;16.70;99.90;;;;;;5008232;28;20516;-64
2022/08/11 02:26:59;;;;;;;6.45;3.78;;;16.70;99.90;;;;;;4994434;28;20092;-58
2022/08/11 02:29:55;;;;;;;3.97;3.28;;;16.70;99.90;;;;;;5007666;28;20042;-61
2022/08/11 02:36:07;;;;;;;8.20;3.15;;;16.70;99.90;;;;;;4998825;28;20092;-63
2022/08/11 02:38:53;;;;;;;7.30;3.30;;;16.60;99.90;;;;;;4994496;28;20052;-61
2022/08/11 02:45:11;;;;;;;5.82;3.15;;;16.60;99.90;;;;;;5008668;28;20046;-58
2022/08/11 02:49:52;;;;;;;3.92;3.10;;;16.60;99.90;;;;;;4999346;28;20054;-57
2022/08/11 02:51:02;;;;;;;6.03;3.03;;;16.60;99.90;;;;;;5006971;28;20454;-67
2022/08/11 02:53:48;;;;;;;12.48;3.67;;;16.50;99.90;;;;;;4978445;28;20467;-62
2022/08/11 02:56:33;;;;;;;26.17;4.20;;;16.50;99.90;;;;;;5006985;28;20124;-65
2022/08/11 03:02:33;;;;;;;4.35;3.05;;;16.50;99.90;;;;;;5008257;28;20582;-65
2022/08/11 03:05:10;;;;;;;5.60;2.75;;;16.50;99.90;;;;;;5024600;28;20501;-58
2022/08/11 03:08:05;;;;;;;3.28;2.90;;;16.50;99.90;;;;;;5025426;28;20052;-63
2022/08/11 03:17:20;;;;;;;4.15;2.78;;;16.20;99.90;;;;;;5024875;28;20498;-59
2022/08/11 03:20:02;;;;;;;4.82;2.92;;;16.20;99.90;;;;;;5012818;28;20217;-66
2022/08/11 03:23:17;;;;;;;4.95;3.00;;;16.20;99.90;;;;;;5022976;28;20128;-58
2022/08/11 03:26:05;;;;;;;6.20;2.53;;;16.20;99.90;;;;;;5001330;28;20049;-62
2022/08/11 03:29:03;;;;;;;4.43;2.50;;;16.10;99.90;;;;;;5016632;28;20045;-58
2022/08/11 03:31:51;;;;;;;6.30;3.33;;;16.10;99.90;;;;;;5027350;28;20095;-58
2022/08/11 03:34:30;;;;;;;3.30;3.10;;;16.10;99.90;;;;;;5026397;28;20099;-62
2022/08/11 03:37:49;;;;;;;3.67;2.92;;;16.10;99.90;;;;;;5025812;28;20049;-63
2022/08/11 03:43:50;;;;;;;3.95;2.88;;;16.00;99.90;;;;;;5018588;28;20057;-66
2022/08/11 03:46:58;;;;;;;4.20;2.65;;;16.00;99.90;;;;;;5026997;28;20508;-63
2022/08/11 03:50:05;;;;;;;6.78;2.70;;;16.00;99.90;;;;;;5021486;28;20112;-61
2022/08/11 03:52:51;;;;;;;5.50;2.60;;;16.00;99.90;;;;;;5003503;28;20053;-59
2022/08/11 03:55:55;;;;;;;6.90;3.10;;;16.00;99.90;;;;;;5025961;28;20120;-63
2022/08/11 03:58:36;;;;;;;7.15;2.92;;;16.00;99.90;;;;;;5026930;28;20125;-58
2022/08/11 04:01:28;;;;;;;3.45;2.70;;;15.90;99.90;;;;;;5024262;28;20045;-57
2022/08/11 04:04:32;;;;;;;2.90;2.70;;;15.90;99.90;;;;;;5025600;28;20092;-67
2022/08/11 04:07:17;;;;;;;5.50;3.20;;;15.90;99.90;;;;;;5026610;28;20049;-65
2022/08/11 04:10:22;;;;;;;4.63;2.70;;;15.90;99.90;;;;;;5025564;28;20056;-63
2022/08/11 04:13:26;;;;;;;3.58;2.65;;;15.90;99.90;;;;;;5020247;28;20417;-58
2022/08/11 04:16:37;;;;;;;5.80;2.60;;;15.90;99.90;;;;;;5025492;28;20416;-64
2022/08/11 04:19:28;;;;;;;14.32;2.85;;;16.00;99.90;;;;;;5016235;28;20107;-61
2022/08/11 04:22:19;;;;;;;6.57;2.78;;;16.00;99.90;;;;;;5025260;28;20495;-64
2022/08/11 04:24:57;;;;;;;5.28;2.70;;;16.10;99.90;;;;;;5026073;28;20143;-57
2022/08/11 04:27:55;;;;;;;2.28;1.90;;;16.10;99.90;;;;;;5026615;28;20054;-62
2022/08/11 04:30:40;;;;;;;3.10;2.38;;;16.10;99.90;;;;;;5015499;28;20579;-57
2022/08/11 04:33:45;;;;;;;3.33;2.05;;;16.10;99.90;;;;;;5025710;28;20532;-61
2022/08/11 04:37:30;;;;;;;4.40;2.78;;;16.10;99.90;;;;;;5025729;28;20103;-57
2022/08/11 04:39:37;;;;;;;3.10;2.90;;;16.20;99.90;;;;;;5025236;28;20459;-58
2022/08/11 04:45:21;;;;;;;5.35;3.33;;;16.30;99.90;;;;;;5025802;28;20077;-56
2022/08/11 05:07:39;;;;;;;9.40;3.60;;;16.60;99.90;;;;;;5030016;28;20103;-63
2022/08/11 05:10:35;;;;;;;5.22;3.72;;;16.70;99.90;;;;;;5024323;28;20135;-59
2022/08/11 05:36:28;;;;;;;5.38;3.42;;;17.10;99.90;;;;;;5028431;28;20041;-57
2022/08/11 05:58:44;;;;;;;9.80;3.20;;;17.60;99.90;;;;;;5028862;28;20147;-67
2022/08/11 06:01:14;;;;;;;5.45;2.80;;;17.70;99.90;;;;;;5026786;28;20048;-62
2022/08/11 06:06:30;;;;;;;4.65;2.55;;;17.80;99.90;;;;;;5008539;28;20050;-58
2022/08/11 06:08:58;;;;;;;5.97;3.08;;;17.90;99.90;;;;;;5008126;28;20041;-60
2022/08/11 06:11:26;;;;;;;4.68;2.65;;;17.90;99.90;;;;;;5008282;28;20103;-61
2022/08/11 06:13:53;;;;;;;8.50;2.85;;;18.00;99.90;;;;;;5008198;28;20053;-59
2022/08/11 06:16:27;;;;;;;5.97;2.55;;;18.00;99.90;;;;;;4996405;28;20042;-59
2022/08/11 06:18:54;;;;;;;5.18;2.70;;;18.10;99.90;;;;;;5008051;28;20408;-54
2022/08/11 06:21:21;;;;;;;5.93;3.28;;;18.20;99.90;;;;;;4991405;28;20045;-65
2022/08/11 06:23:48;;;;;;;2.47;2.28;;;18.30;99.90;;;;;;5007636;28;20121;-59
2022/08/11 06:26:17;;;;;;;4.43;2.50;;;18.30;99.90;;;;;;5007494;28;20574;-56
2022/08/11 06:28:46;;;;;;;4.47;2.53;;;18.40;99.90;;;;;;4986769;28;20053;-56
2022/08/11 06:31:17;;;;;;;4.65;1.80;;;18.50;99.90;;;;;;5006879;28;20095;-59
2022/08/11 06:33:49;;;;;;;8.98;2.75;;;18.60;99.90;;;;;;5008995;28;20053;-66
2022/08/11 06:36:33;;;;;;;2.92;2.60;;;18.60;99.90;;;;;;5006557;28;20686;-57
2022/08/11 06:39:19;;;;;;;12.02;2.65;;;18.70;99.90;;;;;;5008397;28;20053;-66
2022/08/11 06:41:52;;;;;;;5.13;2.70;;;18.80;99.90;;;;;;5008456;28;20053;-57
2022/08/11 06:44:39;;;;;;;8.77;3.35;;;18.80;99.90;;;;;;5007403;28;20562;-63
2022/08/11 06:47:09;;;;;;;4.05;2.35;;;18.90;99.90;;;;;;5008204;28;20492;-64
2022/08/11 06:52:33;;;;;;;3.92;1.98;;;19.10;99.90;;;;;;5007558;28;20377;-63
2022/08/11 07:00:26;;;;;;;5.40;2.67;;;19.20;99.90;;;;;;4991279;28;20053;-62
2022/08/11 07:00:48;;;;;;;2.63;1.90;;;19.30;99.90;;;;;;5007002;28;20049;-60
2022/08/11 07:03:19;;;;;;;4.05;2.28;;;19.50;99.90;;;;;;5002836;28;20379;-60
2022/08/11 07:06:02;;;;;;;5.47;2.60;;;19.60;99.90;;;;;;5024092;28;20091;-57
2022/08/11 07:15:40;;;;;;;5.40;2.55;;;19.90;99.90;;;;;;5017145;28;20671;-61
2022/08/11 07:17:25;;;;;;;10.73;2.25;;;20.50;99.90;;;;;;5025609;28;20060;-62
2022/08/11 07:31:16;;;;;;;3.08;1.63;;;22.00;98.20;;;;;;5026362;28;20099;-55
2022/08/11 07:34:04;;;;;;;3.63;1.80;;;22.20;94.90;;;;;;5027160;28;20053;-57
2022/08/11 07:36:33;;;;;;;1.70;1.60;;;22.60;95.50;;;;;;5024598;28;20041;-61
2022/08/11 07:39:00;;;;;;;;;;;23.00;93.50;;;;;;5027697;28;20512;-56
2022/08/11 07:41:31;;;;;;;3.50;2.03;;;23.40;88.00;;;;;;5025950;28;19921;-53
2022/08/11 07:44:17;;;;;;;3.42;1.50;;;23.60;85.60;;;;;;5025980;28;20439;-61
2022/08/11 07:52:31;;;;;;;4.57;2.08;;;24.40;68.80;;;;;;5025979;28;20045;-57
2022/08/11 07:54:59;;;;;;;4.25;2.28;;;24.70;79.30;;;;;;5026567;28;20045;-52
2022/08/11 08:19:49;;;;;;;6.32;1.70;;;25.80;49.20;;;;;;5003820;28;20917;-64
2022/08/11 08:22:19;;;;;;;5.00;2.00;;;26.00;54.70;;;;;;5005331;28;20049;-63
2022/08/11 08:24:46;;;;;;;16.17;2.05;;;26.10;52.20;;;;;;5003997;28;20064;-60
2022/08/11 08:27:14;;;;;;;5.63;2.10;;;26.10;51.70;;;;;;4987626;28;20125;-68
2022/08/11 08:32:29;;;;;;;3.97;2.00;;;25.80;43.00;;;;;;5004067;28;20050;-61
2022/08/11 08:34:57;;;;;;;2.92;1.83;;;25.80;63.00;;;;;;5006379;28;20495;-65
2022/08/11 08:37:26;;;;;;;5.97;2.28;;;25.50;48.00;;;;;;5004930;28;20058;-57
2022/08/11 08:39:55;;;;;;;7.35;1.98;;;25.30;49.60;;;;;;5006143;28;20580;-54
2022/08/11 08:42:34;;;;;;;5.13;1.85;;;25.20;60.90;;;;;;5005042;28;20041;-63
2022/08/11 08:45:08;;;;;;;6.07;2.38;;;25.30;61.70;;;;;;5005764;28;20046;-62
2022/08/11 08:47:37;;;;;;;6.55;2.60;;;25.50;55.80;;;;;;5006211;28;20072;-59
2022/08/11 08:50:11;;;;;;;6.72;2.38;;;25.50;54.10;;;;;;5005407;28;20129;-61
2022/08/11 08:52:42;;;;;;;14.45;2.08;;;25.40;56.10;;;;;;5006753;28;20109;-67
2022/08/11 08:55:15;;;;;;;3.80;1.92;;;25.40;54.20;;;;;;5004777;28;20037;-66
2022/08/11 08:57:44;;;;;;;3.50;1.80;;;25.50;52.70;;;;;;5000472;28;20512;-57
2022/08/11 09:00:15;;;;;;;3.25;2.03;;;25.50;56.10;;;;;;5005953;28;20042;-56
2022/08/11 09:02:43;;;;;;;3.17;1.30;;;25.60;44.40;;;;;;5004546;28;20405;-60
2022/08/11 09:05:11;;;;;;;8.02;1.50;;;25.70;61.00;;;;;;5018631;28;20435;-63
2022/08/11 09:07:46;;;;;;;3.13;1.45;;;25.80;58.40;;;;;;5005207;28;20049;-63
2022/08/11 09:10:17;;;;;;;12.63;1.80;;;26.00;53.80;;;;;;5022556;28;20041;-59
2022/08/11 09:12:44;;;;;;;10.10;1.92;;;26.00;46.40;;;;;;5025761;28;20052;-64
2022/08/11 09:15:15;;;;;;;7.22;1.85;;;26.00;47.90;;;;;;5022368;28;20072;-60
2022/08/11 09:17:52;;;;;;;4.75;1.92;;;25.90;53.50;;;;;;5023575;28;20071;-61
2022/08/11 09:20:24;;;;;;;13.27;1.50;;;25.80;44.70;;;;;;5015869;28;20435;-64
2022/08/11 09:28:29;;;;;;;4.72;1.45;;;25.80;52.30;;;;;;5020743;28;20048;-64
2022/08/11 09:30:59;;;;;;;5.20;1.77;;;25.90;50.10;;;;;;5023817;28;20048;-65
2022/08/11 09:33:28;;;;;;;5.72;1.55;;;26.10;56.60;;;;;;5023442;28;20037;-57
2022/08/11 09:35:54;;;;;;;2.17;1.35;;;26.20;49.10;;;;;;5008850;28;20045;-63
2022/08/11 09:41:10;;;;;;;3.58;1.58;;;26.20;54.50;;;;;;5008557;28;20049;-67
2022/08/11 09:46:28;;;;;;;2.70;1.25;;;26.30;27.10;;;;;;5009059;28;20081;-59
2022/08/11 09:48:58;;;;;;;8.30;1.40;;;26.40;27.70;;;;;;5025665;28;20077;-66
2022/08/11 09:51:25;;;;;;;5.75;1.30;;;26.40;20.70;;;;;;5021347;28;20052;-60
2022/08/11 09:53:52;;;;;;;4.40;1.42;;;26.50;18.10;;;;;;5010775;28;20142;-61
2022/08/11 09:59:07;;;;;;;4.53;1.25;;;26.50;22.80;;;;;;5024247;28;20054;-58
2022/08/11 10:01:42;;;;;;;3.53;1.10;;;26.60;16.20;;;;;;5027046;28;20080;-60
2022/08/11 10:04:33;;;;;;;3.65;1.23;;;26.80;24.40;;;;;;5024532;28;20552;-66
2022/08/11 10:07:01;;;;;;;2.30;1.00;;;27.00;22.70;;;;;;5021849;28;20092;-67
2022/08/11 10:09:39;;;;;;;1.40;1.15;;;27.20;18.00;;;;;;5027219;28;20230;-61
2022/08/11 10:12:26;;;;;;;4.90;1.30;;;27.20;16.00;;;;;;5026626;28;20052;-56
2022/08/11 10:18:40;;;;;;;4.18;1.30;;;27.40;14.20;;;;;;5027684;28;20084;-63
2022/08/11 10:20:34;;;;;;;4.88;1.13;;;27.40;16.90;;;;;;5022149;28;20065;-66
2022/08/11 10:28:33;;;;;;;1.40;0.80;;;27.80;5.10;;;;;;5022353;28;20569;-68
2022/08/11 10:33:58;;;;;;;2.72;1.00;;;27.50;2.60;;;;;;5016279;28;20100;-59
2022/08/11 10:36:29;;;;;;;2.72;0.90;;;27.50;4.40;;;;;;5024596;28;20281;-67
2022/08/11 10:38:56;;;;;;;2.28;1.10;;;27.50;1.00;;;;;;5024338;28;20045;-61
2022/08/11 10:44:09;;;;;;;4.65;0.80;;;27.40;1.00;;;;;;5018714;28;20050;-59
2022/08/11 10:49:22;;;;;;;5.43;1.25;;;27.70;4.00;;;;;;5017013;28;20049;-68
2022/08/11 11:00:06;;;;;;;3.58;1.00;;;28.00;1.90;;;;;;5019231;28;20080;-62
2022/08/11 11:02:33;;;;;;;2.53;0.77;;;28.10;1.00;;;;;;5026386;28;20630;-61
2022/08/11 11:05:19;;;;;;;2.72;0.60;;;28.00;1.00;;;;;;5024478;28;20061;-63
2022/08/11 11:07:56;;;;;;;5.30;0.70;;;27.90;1.00;;;;;;5025995;28;20112;-66
2022/08/11 11:10:22;;;;;;;5.68;0.88;;;27.80;1.00;;;;;;5028140;28;20049;-65
2022/08/11 11:18:36;;;;;;;1.10;0.82;;;27.80;1.00;;;;;;5026236;28;20136;-58
2022/08/11 11:21:06;;;;;;;3.55;0.70;;;27.80;1.00;;;;;;5005294;28;20488;-56
2022/08/11 11:23:40;;;;;;;1.27;0.55;;;27.80;1.00;;;;;;5026093;28;20395;-58
2022/08/11 11:26:25;;;;;;;0.90;0.47;;;27.70;1.00;;;;;;5025556;28;20045;-58
2022/08/11 11:29:09;;;;;;;8.02;0.70;;;27.70;1.00;;;;;;5008900;28;20049;-67
2022/08/11 11:31:47;;;;;;;2.78;0.60;;;27.80;1.00;;;;;;5008427;28;20044;-59
2022/08/11 11:34:37;;;;;;;0.60;0.60;;;27.90;1.00;;;;;;5026325;28;20376;-60
2022/08/11 11:37:03;;;;;;;5.45;0.63;;;27.80;1.00;;;;;;5026017;28;20136;-59
2022/08/11 11:39:32;;;;;;;0.55;0.50;;;27.70;1.00;;;;;;5025927;28;20128;-63
2022/08/11 11:42:07;;;;;;;2.38;0.88;;;27.70;1.00;;;;;;5013723;28;20407;-62
2022/08/11 11:44:36;;;;;;;1.90;0.80;;;27.70;1.00;;;;;;5008395;28;20060;-61
2022/08/11 11:47:02;;;;;;;0.38;0.38;;;27.90;1.00;;;;;;4992682;28;20570;-60
2022/08/11 11:49:31;;;;;;;0.68;0.60;;;28.00;1.00;;;;;;5019558;28;20507;-64
2022/08/11 11:51:58;;;;;;;7.22;0.77;;;27.90;1.00;;;;;;5022778;28;20045;-63
2022/08/11 11:54:28;;;;;;;2.85;0.90;;;27.90;1.00;;;;;;5018472;28;20054;-64
2022/08/11 11:56:56;;;;;;;1.77;0.85;;;27.90;1.00;;;;;;5006547;28;20085;-59
2022/08/11 12:02:15;;;;;;;4.50;0.90;;;28.00;1.00;;;;;;4997952;28;20053;-61
2022/08/11 12:04:43;;;;;;;7.57;1.20;;;28.00;1.00;;;;;;5018079;28;20496;-58
2022/08/11 12:09:56;;;;;;;4.15;0.60;;;28.20;1.00;;;;;;5003191;28;20397;-62
2022/08/11 12:15:08;;;;;;;3.05;0.85;;;28.10;1.00;;;;;;5027066;28;20056;-61
2022/08/11 12:17:36;;;;;;;1.25;0.95;;;27.50;1.00;;;;;;5007535;28;20057;-64
2022/08/11 12:20:03;;;;;;;5.40;1.10;;;27.20;2.50;;;;;;5007569;28;20049;-64
2022/08/11 12:28:01;;;;;;;5.93;0.98;;;26.40;10.30;;;;;;5026821;28;20046;-61
2022/08/11 12:30:27;;;;;;;2.15;1.00;;;26.30;9.80;;;;;;5009235;28;20038;-59
2022/08/11 12:32:54;;;;;;;1.58;0.80;;;26.20;12.00;;;;;;5025767;28;20049;-59
2022/08/11 12:35:21;;;;;;;5.95;0.88;;;26.30;11.90;;;;;;5026750;28;20133;-65
2022/08/11 12:38:00;;;;;;;4.05;1.10;;;26.20;11.40;;;;;;5025209;28;20118;-62
2022/08/11 12:46:09;;;;;;;3.28;1.10;;;26.30;14.80;;;;;;5008163;28;20399;-55
2022/08/11 12:54:44;;;;;;;2.10;1.02;;;26.30;18.90;;;;;;5016658;28;20041;-60
2022/08/11 13:05:41;;;;;;;7.22;1.30;;;26.20;19.60;;;;;;5024323;28;20064;-67
2022/08/11 13:08:08;;;;;;;3.53;1.13;;;26.20;19.70;;;;;;4989775;28;20436;-65
2022/08/11 13:13:20;;;;;;;2.78;1.13;;;26.30;23.70;;;;;;5027346;28;20053;-63
2022/08/11 13:15:48;;;;;;;5.97;1.30;;;26.30;20.70;;;;;;5029898;28;20045;-63
2022/08/11 13:18:16;;;;;;;4.57;0.90;;;26.30;15.70;;;;;;5024582;28;20061;-60
2022/08/11 13:20:43;;;;;;;5.90;1.77;;;26.30;13.30;;;;;;4991972;28;20050;-60
2022/08/11 13:23:11;;;;;;;1.67;0.70;;;26.30;13.90;;;;;;5002795;28;20095;-58
2022/08/11 13:25:38;;;;;;;;;;;26.30;9.90;;;;;;5025821;28;20065;-59
2022/08/11 13:28:04;;;;;;;4.38;1.20;;;26.20;11.10;;;;;;5027519;28;19925;-66
2022/08/11 13:33:17;;;;;;;5.57;1.02;;;26.20;8.90;;;;;;5027702;28;20064;-67
2022/08/11 13:35:45;;;;;;;4.97;0.82;;;26.00;13.10;;;;;;5028598;28;20064;-57
2022/08/11 13:38:12;;;;;;;4.05;1.10;;;25.90;17.30;;;;;;5024791;28;20038;-59
2022/08/11 13:40:39;;;;;;;4.90;0.90;;;25.80;19.50;;;;;;5026189;28;20530;-56
2022/08/11 13:43:06;;;;;;;7.53;1.07;;;25.90;21.00;;;;;;5027451;28;20044;-58
2022/08/11 13:45:34;;;;;;;4.38;1.02;;;25.80;26.60;;;;;;5009493;28;20049;-59
2022/08/11 13:48:02;;;;;;;3.35;0.90;;;25.80;19.30;;;;;;5026802;28;20049;-64
2022/08/11 13:53:18;;;;;;;4.18;1.20;;;26.10;21.00;;;;;;5011970;28;20042;-56
2022/08/11 13:55:44;;;;;;;9.48;1.20;;;26.10;25.50;;;;;;5026294;28;20049;-68
2022/08/11 13:58:12;;;;;;;1.92;1.20;;;26.20;24.70;;;;;;5029448;28;20073;-63
2022/08/11 14:00:40;;;;;;;1.73;0.90;;;26.40;18.00;;;;;;5008053;28;20050;-56
2022/08/11 14:03:10;;;;;;;4.88;0.82;;;26.40;25.00;;;;;;5028181;28;20487;-65
2022/08/11 14:05:45;;;;;;;3.63;1.00;;;26.50;29.90;;;;;;5026067;28;20054;-62
2022/08/11 14:08:18;;;;;;;4.85;1.00;;;26.60;34.30;;;;;;5028408;28;20457;-59
2022/08/11 14:13:36;;;;;;;5.03;0.93;;;26.80;24.30;;;;;;5009897;28;20049;-63
2022/08/11 14:13:38;;;;;;;5.55;1.20;;;26.80;33.30;;;;;;5025217;28;20037;-59
2022/08/11 14:16:14;;;;;;;7.13;0.82;;;27.00;27.50;;;;;;5008587;28;20044;-58
2022/08/11 14:18:44;;;;;;;1.38;0.65;;;26.80;21.60;;;;;;5027299;28;20127;-59
2022/08/11 14:24:01;;;;;;;2.47;0.80;;;27.00;10.00;;;;;;5026442;28;20041;-60
2022/08/11 14:26:30;;;;;;;4.70;1.00;;;27.10;10.50;;;;;;5026476;28;20268;-58
2022/08/11 14:29:09;;;;;;;3.13;1.15;;;27.20;16.00;;;;;;5027985;28;20288;-58
2022/08/11 14:31:48;;;;;;;2.95;1.00;;;27.10;21.00;;;;;;5027375;28;20088;-64
2022/08/11 14:34:19;;;;;;;3.15;0.73;;;27.10;20.50;;;;;;5026836;28;20044;-59
2022/08/11 14:36:51;;;;;;;2.25;1.40;;;27.20;19.60;;;;;;5025867;28;20049;-64
2022/08/11 14:39:20;;;;;;;1.85;0.88;;;27.20;21.50;;;;;;5007493;28;20749;-57
2022/08/11 14:47:46;;;;;;;2.05;0.90;;;27.00;25.30;;;;;;5026434;28;20045;-54
2022/08/11 14:50:14;;;;;;;1.92;0.85;;;27.00;26.50;;;;;;5027240;28;20037;-64
2022/08/11 14:52:47;;;;;;;6.57;1.20;;;26.90;25.00;;;;;;5005262;28;20050;-62
2022/08/11 14:58:01;;;;;;;1.83;0.93;;;26.90;38.40;;;;;;5021281;28;20089;-60
2022/08/11 15:00:27;;;;;;;3.83;1.00;;;27.00;28.50;;;;;;5005888;28;20494;-58
2022/08/11 15:03:09;;;;;;;3.42;0.93;;;27.00;33.60;;;;;;5025578;28;20292;-61
2022/08/11 15:05:36;;;;;;;3.03;0.65;;;27.00;21.90;;;;;;5021734;28;20116;-62
2022/08/11 15:08:02;;;;;;;1.42;0.68;;;27.00;18.80;;;;;;5002984;28;20062;-64
2022/08/11 15:10:28;;;;;;;5.85;0.90;;;27.00;23.40;;;;;;5025255;28;20678;-66
2022/08/11 15:12:55;;;;;;;1.30;0.82;;;27.20;22.80;;;;;;5019845;28;20105;-65
2022/08/11 15:18:11;;;;;;;3.22;0.65;;;27.10;8.50;;;;;;4996165;28;20493;-66
2022/08/11 15:37:25;;;;;;;4.20;0.70;;;27.30;1.00;;;;;;4985585;28;20491;-65
2022/08/11 15:37:34;;;;;;;1.27;0.60;;;27.30;1.00;;;;;;5018297;28;20045;-65
2022/08/11 15:45:52;;;;;;;0.70;0.70;;;27.50;1.00;;;;;;5023257;28;20072;-61
2022/08/11 15:48:29;;;;;;;4.13;0.63;;;27.40;1.00;;;;;;5008667;28;20175;-64
2022/08/11 15:51:00;;;;;;;3.80;1.20;;;27.50;1.00;;;;;;5022275;28;20387;-58
2022/08/11 15:53:28;;;;;;;4.13;0.85;;;27.40;1.00;;;;;;5024791;28;20044;-58
2022/08/11 15:55:57;;;;;;;0.52;0.52;;;27.40;1.00;;;;;;5026383;28;20072;-61
2022/08/11 16:04:12;;;;;;;1.60;0.60;;;27.30;1.00;;;;;;5003474;28;20137;-57
2022/08/11 16:06:47;;;;;;;1.95;0.68;;;27.40;1.00;;;;;;5022206;28;20084;-57
2022/08/11 16:09:16;;;;;;;3.85;0.68;;;27.30;1.00;;;;;;5006318;28;20038;-56
2022/08/11 16:11:43;;;;;;;5.72;1.00;;;27.30;1.00;;;;;;5025418;28;20103;-60
2022/08/11 16:16:57;;;;;;;5.03;0.85;;;27.40;1.00;;;;;;5017449;28;20096;-67
2022/08/11 16:19:25;;;;;;;5.13;1.17;;;27.40;1.00;;;;;;5010780;28;20502;-56
2022/08/11 16:21:54;;;;;;;0.95;0.85;;;27.30;1.00;;;;;;5012810;28;20060;-61
2022/08/11 16:24:21;;;;;;;4.78;0.80;;;27.30;1.00;;;;;;5017603;28;20042;-65
2022/08/11 16:26:49;;;;;;;3.63;1.13;;;27.20;1.00;;;;;;5004359;28;20091;-60
2022/08/11 16:29:15;;;;;;;1.92;0.75;;;27.20;1.00;;;;;;5003055;28;20104;-62
2022/08/11 16:32:15;;;;;;;2.60;0.90;;;27.20;1.00;;;;;;5012494;28;20075;-63
2022/08/11 16:40:04;;;;;;;9.05;1.00;;;27.00;1.00;;;;;;5013180;28;20050;-66
2022/08/11 16:48:01;;;;;;;2.05;0.70;;;27.00;1.00;;;;;;5022561;28;20603;-60
2022/08/11 16:50:28;;;;;;;4.80;1.00;;;27.00;1.00;;;;;;5023694;28;20542;-64
2022/08/11 16:52:54;;;;;;;5.55;0.88;;;26.90;1.00;;;;;;5021723;28;20069;-65
2022/08/11 16:55:21;;;;;;;3.70;0.95;;;26.90;1.00;;;;;;5023354;28;20096;-60
2022/08/11 17:00:33;;;;;;;7.55;1.30;;;26.90;1.10;;;;;;5022217;28;20038;-64
2022/08/11 17:14:57;;;;;;;4.78;0.90;;;26.60;1.00;;;;;;5010848;28;20421;-59
2022/08/11 17:17:35;;;;;;;2.22;0.60;;;26.50;1.00;;;;;;5023849;28;20120;-62
2022/08/11 17:20:08;;;;;;;3.45;0.90;;;26.40;1.00;;;;;;5023315;28;20418;-59
2022/08/11 17:25:23;;;;;;;1.30;0.82;;;26.30;1.00;;;;;;5012491;28;20250;-60
2022/08/11 17:27:49;;;;;;;;;;;26.30;1.40;;;;;;5017735;28;20085;-59
2022/08/11 17:30:15;;;;;;;3.75;0.70;;;26.30;1.20;;;;;;5005722;28;20390;-64
2022/08/11 17:35:38;;;;;;;4.22;1.00;;;26.20;1.00;;;;;;4992325;28;20092;-62
2022/08/11 17:38:19;;;;;;;6.93;1.55;;;26.10;1.10;;;;;;5002603;28;20049;-65
2022/08/11 17:49:12;;;;;;;2.28;0.88;;;25.90;4.20;;;;;;5004286;28;20496;-58
2022/08/11 18:00:13;;;;;;;9.55;0.60;;;25.60;7.60;;;;;;5026152;28;20097;-67
2022/08/11 18:05:33;;;;;;;5.03;0.95;;;25.40;6.40;;;;;;5027851;28;20053;-63
